Date,TemperatureHighF,TemperatureAvgF,TemperatureLowF,DewpointHighF,DewpointAvgF,DewpointLowF,HumidityHigh,HumidityAvg,HumidityLow,PressureMaxIn,PressureMinIn,WindSpeedMaxMPH,WindSpeedAvgMPH,GustSpeedMaxMPH,PrecipitationSumIn
2013-3-1,79.7,58.7,41.9,52.0,41.8,37.4,96,58,30,30.37,30.13,6,1,7,0.00
2013-3-2,74.3,59.4,45.5,49.5,44.2,38.3,88,59,38,30.13,29.92,3,0,5,0.00
2013-3-3,71.2,58.6,47.4,46.9,43.1,38.9,84,59,33,29.98,29.89,7,2,11,0.00
2013-3-4,66.0,52.7,45.6,45.9,42.4,37.8,95,70,40,30.07,29.89,6,2,8,0.00
2013-3-5,63.3,52.3,41.5,44.4,38.4,34.7,90,62,37,29.98,29.66,10,3,19,0.04
2013-3-6,60.0,51.7,39.2,47.9,38.2,31.9,92,62,38,29.95,29.66,8,2,20,0.13
2013-3-7,64.2,49.1,36.5,46.5,35.4,31.5,95,63,37,29.90,29.69,6,1,11,0.00
2013-3-8,50.9,48.0,45.1,38.7,37.7,36.2,76,68,57,29.93,29.87,3,1,7,0.00
2013-3-9,73.7,55.0,37.5,47.5,36.2,32.0,95,55,24,30.19,29.90,5,1,9,0.00
2013-3-10,75.0,55.8,36.5,42.5,34.2,30.9,91,50,24,30.28,30.10,5,1,7,0.00
2013-3-11,80.4,57.2,37.5,43.4,35.5,30.4,82,49,23,30.16,29.95,4,1,6,0.00
2013-3-12,81.6,60.1,40.8,48.3,40.0,33.6,81,51,26,30.07,29.89,4,1,6,0.00
2013-3-13,85.1,62.7,43.8,51.8,44.8,39.0,93,56,30,30.10,29.89,5,1,8,0.00
2013-3-14,81.8,61.7,47.6,54.9,43.8,35.3,92,56,25,30.07,29.92,5,1,8,0.00
2013-3-15,79.8,59.5,44.4,46.2,40.8,35.7,80,53,26,30.01,29.86,4,0,7,0.00
2013-3-16,80.2,61.5,43.7,50.0,41.2,32.7,90,54,23,30.01,29.83,7,1,12,0.00
2013-3-18,74.8,63.6,41.0,44.5,40.0,34.0,81,44,30,30.01,29.86,4,1,10,0.00
2013-3-19,76.4,57.8,46.0,45.8,40.5,32.2,85,56,31,30.01,29.92,4,1,9,0.04
2013-3-20,66.9,56.7,49.4,56.3,49.0,43.2,98,77,48,30.01,29.92,5,1,12,0.00
2013-3-21,71.6,56.7,41.1,48.4,40.6,36.3,93,60,32,30.04,29.86,6,1,9,0.00
2013-3-22,75.3,55.6,36.8,46.4,32.0,23.9,98,49,15,30.02,29.86,7,1,13,0.00
2013-3-23,75.7,63.8,37.0,41.4,30.7,26.6,84,32,20,30.04,29.83,5,1,7,0.00
2013-3-24,77.7,58.8,39.7,43.4,35.6,27.7,69,44,27,29.98,29.77,4,1,7,0.00
2013-3-25,68.3,54.7,45.6,45.1,40.4,36.7,87,61,33,29.89,29.78,6,2,11,0.00
2013-3-26,77.1,59.5,47.1,45.5,41.3,37.2,83,54,31,29.87,29.74,6,1,10,0.00
2013-3-27,69.0,58.0,47.3,51.3,44.5,37.0,84,62,43,29.89,29.80,6,2,11,0.00
2013-3-28,75.0,61.8,54.3,61.6,50.8,45.8,98,70,41,29.98,29.86,4,1,7,0.00
2013-3-29,81.5,65.5,49.6,51.4,46.7,43.3,98,55,31,30.01,29.83,6,2,12,0.00
2013-3-30,75.9,62.3,56.4,54.9,48.3,44.1,91,62,37,29.98,29.83,5,1,9,0.00
2013-3-31,72.8,60.9,50.9,59.9,50.5,41.2,98,72,35,30.01,29.86,5,1,8,0.12